sensor_id;sensor_type;location;lat;lon;timestamp;pressure;altitude;pressure_sealevel;temperature;humidity
57801;BME280;43627;42.728;23.256;2023-04-25T00:02:12;94180.00;;;9.54;100.00
57801;BME280;43627;42.728;23.256;2023-04-25T00:04:39;94203.03;;;9.73;100.00
57801;BME280;43627;42.728;23.256;2023-04-25T00:07:06;94171.19;;;9.59;100.00
57801;BME280;43627;42.728;23.256;2023-04-25T00:09:33;94181.97;;;9.68;100.00
57801;BME280;43627;42.728;23.256;2023-04-25T00:12:00;94187.91;;;9.87;100.00
57801;BME280;43627;42.728;23.256;2023-04-25T00:14:28;94178.75;;;9.90;100.00
57801;BME280;43627;42.728;23.256;2023-04-25T00:16:55;94166.03;;;9.82;100.00
57801;BME280;43627;42.728;23.256;2023-04-25T00:19:22;94180.00;;;9.89;100.00
57801;BME280;43627;42.728;23.256;2023-04-25T00:21:49;94197.16;;;9.95;100.00
57801;BME280;43627;42.728;23.256;2023-04-25T00:24:15;94211.72;;;9.92;100.00
57801;BME280;43627;42.728;23.256;2023-04-25T00:26:42;94192.38;;;9.90;100.00
57801;BME280;43627;42.728;23.256;2023-04-25T00:29:09;94211.16;;;9.88;100.00
57801;BME280;43627;42.728;23.256;2023-04-25T00:31:36;94216.63;;;9.88;100.00
57801;BME280;43627;42.728;23.256;2023-04-25T00:34:03;94212.59;;;9.84;100.00
57801;BME280;43627;42.728;23.256;2023-04-25T00:36:29;94207.69;;;9.88;100.00
57801;BME280;43627;42.728;23.256;2023-04-25T00:38:56;94192.13;;;9.88;100.00
57801;BME280;43627;42.728;23.256;2023-04-25T00:41:25;94205.34;;;9.95;100.00
57801;BME280;43627;42.728;23.256;2023-04-25T00:43:53;94206.88;;;10.02;100.00
57801;BME280;43627;42.728;23.256;2023-04-25T00:46:21;94180.88;;;10.01;100.00
57801;BME280;43627;42.728;23.256;2023-04-25T00:48:47;94202.59;;;10.16;100.00
57801;BME280;43627;42.728;23.256;2023-04-25T00:51:16;94196.13;;;10.13;100.00
57801;BME280;43627;42.728;23.256;2023-04-25T00:53:46;94198.66;;;10.17;100.00
57801;BME280;43627;42.728;23.256;2023-04-25T00:56:14;94190.00;;;10.18;100.00
57801;BME280;43627;42.728;23.256;2023-04-25T00:58:41;94183.41;;;10.05;100.00
57801;BME280;43627;42.728;23.256;2023-04-25T01:01:10;94177.47;;;10.06;100.00
57801;BME280;43627;42.728;23.256;2023-04-25T01:03:40;94191.72;;;10.16;100.00
57801;BME280;43627;42.728;23.256;2023-04-25T01:06:11;94172.84;;;10.12;100.00
57801;BME280;43627;42.728;23.256;2023-04-25T01:08:38;94175.44;;;10.01;100.00
57801;BME280;43627;42.728;23.256;2023-04-25T01:11:06;94176.88;;;9.96;100.00
57801;BME280;43627;42.728;23.256;2023-04-25T01:13:33;94167.66;;;9.94;100.00
57801;BME280;43627;42.728;23.256;2023-04-25T01:16:01;94162.78;;;9.78;100.00
57801;BME280;43627;42.728;23.256;2023-04-25T01:18:28;94168.47;;;9.80;100.00
57801;BME280;43627;42.728;23.256;2023-04-25T01:20:56;94171.88;;;9.74;100.00
57801;BME280;43627;42.728;23.256;2023-04-25T01:23:25;94167.31;;;9.66;100.00
57801;BME280;43627;42.728;23.256;2023-04-25T01:25:52;94161.69;;;9.69;100.00
57801;BME280;43627;42.728;23.256;2023-04-25T01:28:19;94163.56;;;9.63;100.00
57801;BME280;43627;42.728;23.256;2023-04-25T01:30:46;94143.00;;;9.42;100.00
57801;BME280;43627;42.728;23.256;2023-04-25T01:33:14;94153.41;;;9.43;100.00
57801;BME280;43627;42.728;23.256;2023-04-25T01:35:43;94151.06;;;9.36;100.00
57801;BME280;43627;42.728;23.256;2023-04-25T01:38:15;94167.41;;;9.36;100.00
57801;BME280;43627;42.728;23.256;2023-04-25T01:40:44;94158.84;;;9.43;100.00
57801;BME280;43627;42.728;23.256;2023-04-25T01:43:20;94153.03;;;9.36;100.00
57801;BME280;43627;42.728;23.256;2023-04-25T01:45:52;94169.38;;;9.36;100.00
57801;BME280;43627;42.728;23.256;2023-04-25T01:48:22;94126.38;;;9.05;100.00
57801;BME280;43627;42.728;23.256;2023-04-25T01:50:53;94153.28;;;9.18;100.00
57801;BME280;43627;42.728;23.256;2023-04-25T01:53:22;94044.84;;;8.40;100.00
57801;BME280;43627;42.728;23.256;2023-04-25T01:55:56;94160.69;;;9.17;100.00
57801;BME280;43627;42.728;23.256;2023-04-25T01:58:46;94122.56;;;8.97;100.00
57801;BME280;43627;42.728;23.256;2023-04-25T02:01:15;94062.44;;;8.59;100.00
57801;BME280;43627;42.728;23.256;2023-04-25T02:03:50;94174.53;;;9.34;100.00
57801;BME280;43627;42.728;23.256;2023-04-25T02:06:23;94110.09;;;8.90;100.00
57801;BME280;43627;42.728;23.256;2023-04-25T02:08:50;94147.19;;;9.23;100.00
57801;BME280;43627;42.728;23.256;2023-04-25T02:11:17;94174.16;;;9.41;100.00
57801;BME280;43627;42.728;23.256;2023-04-25T02:13:44;94168.81;;;9.32;100.00
57801;BME280;43627;42.728;23.256;2023-04-25T02:16:11;94111.69;;;8.97;100.00
57801;BME280;43627;42.728;23.256;2023-04-25T02:18:38;94135.06;;;9.24;100.00
57801;BME280;43627;42.728;23.256;2023-04-25T02:21:05;94151.63;;;9.40;100.00
57801;BME280;43627;42.728;23.256;2023-04-25T02:23:32;94144.06;;;9.30;100.00
57801;BME280;43627;42.728;23.256;2023-04-25T02:25:59;94121.31;;;9.12;100.00
57801;BME280;43627;42.728;23.256;2023-04-25T02:28:26;94142.75;;;9.25;100.00
57801;BME280;43627;42.728;23.256;2023-04-25T02:30:53;94113.22;;;9.18;100.00
57801;BME280;43627;42.728;23.256;2023-04-25T02:33:21;94125.69;;;9.25;100.00
57801;BME280;43627;42.728;23.256;2023-04-25T02:35:48;94080.94;;;8.91;100.00
57801;BME280;43627;42.728;23.256;2023-04-25T02:38:15;94079.84;;;8.82;100.00
57801;BME280;43627;42.728;23.256;2023-04-25T02:40:42;94070.19;;;8.81;100.00
57801;BME280;43627;42.728;23.256;2023-04-25T02:43:09;94099.97;;;8.91;100.00
57801;BME280;43627;42.728;23.256;2023-04-25T02:45:38;94098.50;;;8.75;100.00
57801;BME280;43627;42.728;23.256;2023-04-25T02:48:07;94124.09;;;8.83;100.00
57801;BME280;43627;42.728;23.256;2023-04-25T02:50:34;94085.13;;;8.56;100.00
57801;BME280;43627;42.728;23.256;2023-04-25T02:53:01;94096.44;;;8.70;100.00
57801;BME280;43627;42.728;23.256;2023-04-25T02:55:28;94044.44;;;8.32;100.00
57801;BME280;43627;42.728;23.256;2023-04-25T02:57:54;94112.47;;;8.82;100.00
57801;BME280;43627;42.728;23.256;2023-04-25T03:00:24;94089.50;;;8.69;100.00
57801;BME280;43627;42.728;23.256;2023-04-25T03:02:52;94115.25;;;8.88;100.00
57801;BME280;43627;42.728;23.256;2023-04-25T03:05:21;94115.63;;;8.81;100.00
57801;BME280;43627;42.728;23.256;2023-04-25T03:07:48;94079.31;;;8.64;100.00
57801;BME280;43627;42.728;23.256;2023-04-25T03:10:15;94108.81;;;8.71;100.00
57801;BME280;43627;42.728;23.256;2023-04-25T03:12:42;94107.97;;;8.65;100.00
57801;BME280;43627;42.728;23.256;2023-04-25T03:15:09;94115.66;;;8.66;100.00
57801;BME280;43627;42.728;23.256;2023-04-25T03:17:36;94104.50;;;8.49;100.00
57801;BME280;43627;42.728;23.256;2023-04-25T03:20:03;94054.09;;;8.19;100.00
57801;BME280;43627;42.728;23.256;2023-04-25T03:22:30;94088.13;;;8.44;100.00
57801;BME280;43627;42.728;23.256;2023-04-25T03:24:57;94106.59;;;8.54;100.00
57801;BME280;43627;42.728;23.256;2023-04-25T03:27:24;94082.31;;;8.51;100.00
57801;BME280;43627;42.728;23.256;2023-04-25T03:29:51;94111.91;;;8.49;100.00
57801;BME280;43627;42.728;23.256;2023-04-25T03:32:17;94106.94;;;8.47;100.00
57801;BME280;43627;42.728;23.256;2023-04-25T03:34:44;94109.19;;;8.34;100.00
57801;BME280;43627;42.728;23.256;2023-04-25T03:37:11;94101.34;;;8.36;100.00
57801;BME280;43627;42.728;23.256;2023-04-25T03:39:39;94091.69;;;8.35;100.00
57801;BME280;43627;42.728;23.256;2023-04-25T03:42:06;94110.59;;;8.59;100.00
57801;BME280;43627;42.728;23.256;2023-04-25T03:44:33;94050.19;;;8.35;100.00
57801;BME280;43627;42.728;23.256;2023-04-25T03:47:00;94108.81;;;8.71;100.00
57801;BME280;43627;42.728;23.256;2023-04-25T03:49:29;94088.59;;;8.72;100.00
57801;BME280;43627;42.728;23.256;2023-04-25T03:51:56;94103.16;;;8.89;100.00
57801;BME280;43627;42.728;23.256;2023-04-25T03:54:23;94111.25;;;8.69;100.00
57801;BME280;43627;42.728;23.256;2023-04-25T03:56:50;94108.69;;;8.80;100.00
57801;BME280;43627;42.728;23.256;2023-04-25T03:59:17;94113.06;;;9.07;100.00
57801;BME280;43627;42.728;23.256;2023-04-25T04:01:44;94115.94;;;9.18;100.00
57801;BME280;43627;42.728;23.256;2023-04-25T04:04:11;94130.97;;;9.49;100.00
57801;BME280;43627;42.728;23.256;2023-04-25T04:06:39;94123.13;;;9.56;100.00
57801;BME280;43627;42.728;23.256;2023-04-25T04:09:07;94106.22;;;9.67;100.00
57801;BME280;43627;42.728;23.256;2023-04-25T04:11:38;94062.72;;;9.32;100.00
57801;BME280;43627;42.728;23.256;2023-04-25T04:14:06;94117.16;;;9.93;100.00
57801;BME280;43627;42.728;23.256;2023-04-25T04:16:33;94114.03;;;10.00;100.00
57801;BME280;43627;42.728;23.256;2023-04-25T04:19:00;94093.59;;;9.90;100.00
57801;BME280;43627;42.728;23.256;2023-04-25T04:21:27;94102.03;;;9.92;100.00
57801;BME280;43627;42.728;23.256;2023-04-25T04:23:54;94084.81;;;10.00;100.00
57801;BME280;43627;42.728;23.256;2023-04-25T04:26:22;94102.22;;;10.09;100.00
57801;BME280;43627;42.728;23.256;2023-04-25T04:28:54;94082.22;;;9.91;100.00
57801;BME280;43627;42.728;23.256;2023-04-25T04:31:22;94114.69;;;10.15;100.00
57801;BME280;43627;42.728;23.256;2023-04-25T04:33:49;94102.03;;;9.92;100.00
57801;BME280;43627;42.728;23.256;2023-04-25T04:36:18;94116.22;;;9.96;100.00
57801;BME280;43627;42.728;23.256;2023-04-25T04:38:50;94023.53;;;9.44;100.00
57801;BME280;43627;42.728;23.256;2023-04-25T04:41:20;94061.16;;;9.45;100.00
57801;BME280;43627;42.728;23.256;2023-04-25T04:43:47;94084.97;;;9.71;100.00
57801;BME280;43627;42.728;23.256;2023-04-25T04:46:14;94114.44;;;9.93;100.00
57801;BME280;43627;42.728;23.256;2023-04-25T04:48:41;94132.56;;;9.96;100.00
57801;BME280;43627;42.728;23.256;2023-04-25T04:51:08;94127.09;;;9.96;100.00
57801;BME280;43627;42.728;23.256;2023-04-25T04:53:34;94134.16;;;10.08;100.00
57801;BME280;43627;42.728;23.256;2023-04-25T04:56:01;94128.94;;;10.25;100.00
57801;BME280;43627;42.728;23.256;2023-04-25T04:58:28;94123.97;;;10.23;100.00
57801;BME280;43627;42.728;23.256;2023-04-25T05:00:56;94129.94;;;10.27;100.00
57801;BME280;43627;42.728;23.256;2023-04-25T05:03:23;94128.84;;;10.19;100.00
57801;BME280;43627;42.728;23.256;2023-04-25T05:05:50;94144.44;;;10.39;100.00
57801;BME280;43627;42.728;23.256;2023-04-25T05:08:17;94147.06;;;10.54;100.00
57801;BME280;43627;42.728;23.256;2023-04-25T05:10:44;94145.59;;;10.58;100.00
57801;BME280;43627;42.728;23.256;2023-04-25T05:13:10;94138.81;;;10.48;100.00
57801;BME280;43627;42.728;23.256;2023-04-25T05:15:37;94130.53;;;10.37;100.00
57801;BME280;43627;42.728;23.256;2023-04-25T05:18:04;94151.44;;;10.46;100.00
57801;BME280;43627;42.728;23.256;2023-04-25T05:20:31;94141.13;;;10.55;100.00
57801;BME280;43627;42.728;23.256;2023-04-25T05:22:57;94146.00;;;10.72;100.00
57801;BME280;43627;42.728;23.256;2023-04-25T05:25:24;94134.84;;;10.75;100.00
57801;BME280;43627;42.728;23.256;2023-04-25T05:27:51;94124.53;;;10.85;100.00
57801;BME280;43627;42.728;23.256;2023-04-25T05:30:18;94148.22;;;11.05;100.00
57801;BME280;43627;42.728;23.256;2023-04-25T05:32:45;94147.72;;;11.01;100.00
57801;BME280;43627;42.728;23.256;2023-04-25T05:35:13;94124.44;;;10.74;100.00
57801;BME280;43627;42.728;23.256;2023-04-25T05:37:40;94114.94;;;10.64;100.00
57801;BME280;43627;42.728;23.256;2023-04-25T05:40:08;94139.63;;;10.80;100.00
57801;BME280;43627;42.728;23.256;2023-04-25T05:42:35;94131.25;;;10.90;100.00
57801;BME280;43627;42.728;23.256;2023-04-25T05:45:01;94107.69;;;10.86;100.00
57801;BME280;43627;42.728;23.256;2023-04-25T05:47:28;94106.00;;;10.95;100.00
57801;BME280;43627;42.728;23.256;2023-04-25T05:49:55;94131.88;;;11.05;100.00
57801;BME280;43627;42.728;23.256;2023-04-25T05:52:22;94128.03;;;11.23;100.00
57801;BME280;43627;42.728;23.256;2023-04-25T05:54:49;94127.31;;;11.28;100.00
57801;BME280;43627;42.728;23.256;2023-04-25T05:57:26;94135.59;;;11.44;100.00
57801;BME280;43627;42.728;23.256;2023-04-25T05:59:53;94144.22;;;11.32;100.00
57801;BME280;43627;42.728;23.256;2023-04-25T06:02:20;94142.56;;;11.45;100.00
57801;BME280;43627;42.728;23.256;2023-04-25T06:04:50;94139.47;;;11.69;100.00
57801;BME280;43627;42.728;23.256;2023-04-25T06:07:21;94140.34;;;11.87;100.00
57801;BME280;43627;42.728;23.256;2023-04-25T06:09:47;94116.97;;;11.80;100.00
57801;BME280;43627;42.728;23.256;2023-04-25T06:12:14;94131.41;;;11.86;100.00
57801;BME280;43627;42.728;23.256;2023-04-25T06:14:41;94136.66;;;12.01;100.00
57801;BME280;43627;42.728;23.256;2023-04-25T06:17:08;94123.28;;;12.09;100.00
57801;BME280;43627;42.728;23.256;2023-04-25T06:19:37;94134.25;;;12.25;100.00
57801;BME280;43627;42.728;23.256;2023-04-25T06:22:04;94139.00;;;12.36;100.00
57801;BME280;43627;42.728;23.256;2023-04-25T06:24:31;94146.50;;;12.41;100.00
57801;BME280;43627;42.728;23.256;2023-04-25T06:26:57;94138.34;;;12.92;100.00
57801;BME280;43627;42.728;23.256;2023-04-25T06:29:24;94143.81;;;13.42;100.00
57801;BME280;43627;42.728;23.256;2023-04-25T06:31:51;94154.03;;;13.47;100.00
57801;BME280;43627;42.728;23.256;2023-04-25T06:34:18;94147.06;;;13.35;100.00
57801;BME280;43627;42.728;23.256;2023-04-25T06:36:45;94135.63;;;13.42;100.00
57801;BME280;43627;42.728;23.256;2023-04-25T06:39:11;94146.06;;;13.49;100.00
57801;BME280;43627;42.728;23.256;2023-04-25T06:41:38;94149.75;;;13.63;100.00
57801;BME280;43627;42.728;23.256;2023-04-25T06:44:05;94150.53;;;13.58;100.00
57801;BME280;43627;42.728;23.256;2023-04-25T06:46:32;94131.13;;;13.50;100.00
57801;BME280;43627;42.728;23.256;2023-04-25T06:48:59;94151.75;;;13.68;100.00
57801;BME280;43627;42.728;23.256;2023-04-25T06:51:25;94144.84;;;13.28;100.00
57801;BME280;43627;42.728;23.256;2023-04-25T06:53:55;94147.06;;;13.01;100.00
57801;BME280;43627;42.728;23.256;2023-04-25T06:56:22;94146.78;;;12.88;100.00
57801;BME280;43627;42.728;23.256;2023-04-25T06:58:49;94141.56;;;12.68;100.00
57801;BME280;43627;42.728;23.256;2023-04-25T07:01:17;94155.22;;;12.68;100.00
57801;BME280;43627;42.728;23.256;2023-04-25T07:03:43;94141.03;;;12.41;100.00
57801;BME280;43627;42.728;23.256;2023-04-25T07:06:10;94137.50;;;12.24;100.00
57801;BME280;43627;42.728;23.256;2023-04-25T07:08:37;94158.34;;;12.21;100.00
57801;BME280;43627;42.728;23.256;2023-04-25T07:11:03;94139.94;;;12.22;100.00
57801;BME280;43627;42.728;23.256;2023-04-25T07:13:30;94153.38;;;12.20;100.00
57801;BME280;43627;42.728;23.256;2023-04-25T07:15:57;94149.63;;;12.17;100.00
57801;BME280;43627;42.728;23.256;2023-04-25T07:18:24;94138.75;;;12.23;100.00
57801;BME280;43627;42.728;23.256;2023-04-25T07:20:50;94143.97;;;12.32;100.00
57801;BME280;43627;42.728;23.256;2023-04-25T07:23:17;94135.03;;;12.37;100.00
57801;BME280;43627;42.728;23.256;2023-04-25T07:25:44;94144.28;;;12.56;100.00
57801;BME280;43627;42.728;23.256;2023-04-25T07:28:10;94145.06;;;12.74;100.00
57801;BME280;43627;42.728;23.256;2023-04-25T07:30:37;94135.59;;;12.97;100.00
57801;BME280;43627;42.728;23.256;2023-04-25T07:33:04;94129.38;;;13.13;100.00
57801;BME280;43627;42.728;23.256;2023-04-25T07:35:31;94129.41;;;13.30;100.00
57801;BME280;43627;42.728;23.256;2023-04-25T07:37:57;94126.41;;;13.34;100.00
57801;BME280;43627;42.728;23.256;2023-04-25T07:40:25;94137.34;;;13.45;100.00
57801;BME280;43627;42.728;23.256;2023-04-25T07:42:52;94132.66;;;13.29;100.00
57801;BME280;43627;42.728;23.256;2023-04-25T07:45:19;94135.63;;;13.42;100.00
57801;BME280;43627;42.728;23.256;2023-04-25T07:47:45;94128.13;;;13.65;100.00
57801;BME280;43627;42.728;23.256;2023-04-25T07:50:12;94137.00;;;13.88;100.00
57801;BME280;43627;42.728;23.256;2023-04-25T07:52:39;94126.03;;;13.93;100.00
57801;BME280;43627;42.728;23.256;2023-04-25T07:55:06;94128.00;;;14.04;100.00
57801;BME280;43627;42.728;23.256;2023-04-25T07:57:32;94123.81;;;13.81;100.00
57801;BME280;43627;42.728;23.256;2023-04-25T07:59:59;94119.13;;;13.76;100.00
57801;BME280;43627;42.728;23.256;2023-04-25T08:02:26;94119.97;;;14.12;100.00
57801;BME280;43627;42.728;23.256;2023-04-25T08:04:54;94124.22;;;14.07;100.00
57801;BME280;43627;42.728;23.256;2023-04-25T08:07:21;94117.53;;;13.97;100.00
57801;BME280;43627;42.728;23.256;2023-04-25T08:09:48;94109.31;;;13.91;100.00
57801;BME280;43627;42.728;23.256;2023-04-25T08:12:15;94115.09;;;13.82;100.00
57801;BME280;43627;42.728;23.256;2023-04-25T08:14:41;94118.34;;;13.86;100.00
57801;BME280;43627;42.728;23.256;2023-04-25T08:17:09;94109.13;;;13.84;100.00
57801;BME280;43627;42.728;23.256;2023-04-25T08:19:36;94123.53;;;13.95;100.00
57801;BME280;43627;42.728;23.256;2023-04-25T08:22:02;94120.03;;;13.95;100.00
57801;BME280;43627;42.728;23.256;2023-04-25T08:24:29;94127.25;;;13.98;100.00
57801;BME280;43627;42.728;23.256;2023-04-25T08:26:56;94128.28;;;13.95;100.00
57801;BME280;43627;42.728;23.256;2023-04-25T08:29:23;94127.75;;;13.96;100.00
57801;BME280;43627;42.728;23.256;2023-04-25T08:31:52;94117.59;;;13.80;100.00
57801;BME280;43627;42.728;23.256;2023-04-25T08:34:21;94144.03;;;13.66;100.00
57801;BME280;43627;42.728;23.256;2023-04-25T08:36:48;94125.41;;;13.42;100.00
57801;BME280;43627;42.728;23.256;2023-04-25T08:39:15;94124.41;;;13.34;100.00
57801;BME280;43627;42.728;23.256;2023-04-25T08:41:43;94125.16;;;13.46;100.00
57801;BME280;43627;42.728;23.256;2023-04-25T08:44:11;94121.91;;;13.42;100.00
57801;BME280;43627;42.728;23.256;2023-04-25T08:46:38;94117.66;;;13.52;100.00
57801;BME280;43627;42.728;23.256;2023-04-25T08:49:08;94116.69;;;13.55;100.00
57801;BME280;43627;42.728;23.256;2023-04-25T08:51:44;94108.59;;;13.91;100.00
57801;BME280;43627;42.728;23.256;2023-04-25T08:54:16;94110.44;;;14.24;100.00
57801;BME280;43627;42.728;23.256;2023-04-25T08:57:03;94100.63;;;14.45;100.00
57801;BME280;43627;42.728;23.256;2023-04-25T08:59:32;94102.53;;;14.62;100.00
57801;BME280;43627;42.728;23.256;2023-04-25T09:02:00;94097.16;;;14.45;100.00
57801;BME280;43627;42.728;23.256;2023-04-25T09:04:27;94108.75;;;14.62;100.00
57801;BME280;43627;42.728;23.256;2023-04-25T09:06:53;94095.63;;;14.44;100.00
57801;BME280;43627;42.728;23.256;2023-04-25T09:09:20;94083.13;;;14.54;100.00
57801;BME280;43627;42.728;23.256;2023-04-25T09:11:53;94090.84;;;14.91;100.00
57801;BME280;43627;42.728;23.256;2023-04-25T09:14:21;94094.53;;;14.99;100.00
57801;BME280;43627;42.728;23.256;2023-04-25T09:16:59;94076.97;;;15.08;100.00
57801;BME280;43627;42.728;23.256;2023-04-25T09:19:35;94062.19;;;15.41;100.00
57801;BME280;43627;42.728;23.256;2023-04-25T09:22:07;94069.19;;;15.66;100.00
57801;BME280;43627;42.728;23.256;2023-04-25T09:24:37;94062.97;;;15.85;100.00
57801;BME280;43627;42.728;23.256;2023-04-25T09:27:18;94067.09;;;16.16;100.00
57801;BME280;43627;42.728;23.256;2023-04-25T09:29:45;94078.09;;;16.35;100.00
57801;BME280;43627;42.728;23.256;2023-04-25T09:34:51;94091.81;;;15.97;100.00
57801;BME280;43627;42.728;23.256;2023-04-25T09:37:29;94088.19;;;15.34;100.00
57801;BME280;43627;42.728;23.256;2023-04-25T09:39:59;94102.75;;;14.99;100.00
57801;BME280;43627;42.728;23.256;2023-04-25T09:42:27;94087.59;;;14.93;100.00
57801;BME280;43627;42.728;23.256;2023-04-25T09:44:56;94062.00;;;15.09;100.00
57801;BME280;43627;42.728;23.256;2023-04-25T09:47:25;94082.97;;;15.61;100.00
57801;BME280;43627;42.728;23.256;2023-04-25T09:49:53;94078.38;;;15.45;100.00
57801;BME280;43627;42.728;23.256;2023-04-25T09:52:23;94076.44;;;15.39;100.00
57801;BME280;43627;42.728;23.256;2023-04-25T09:54:51;94076.38;;;15.69;100.00
57801;BME280;43627;42.728;23.256;2023-04-25T09:57:23;94080.78;;;16.40;100.00
57801;BME280;43627;42.728;23.256;2023-04-25T09:59:54;94069.81;;;16.53;91.05
57801;BME280;43627;42.728;23.256;2023-04-25T10:02:23;94077.25;;;16.59;82.88
57801;BME280;43627;42.728;23.256;2023-04-25T10:04:55;94081.81;;;17.07;80.00
57801;BME280;43627;42.728;23.256;2023-04-25T10:07:24;94071.72;;;16.96;77.06
57801;BME280;43627;42.728;23.256;2023-04-25T10:09:55;94075.47;;;16.80;75.46
57801;BME280;43627;42.728;23.256;2023-04-25T10:12:26;94078.97;;;16.62;81.72
57801;BME280;43627;42.728;23.256;2023-04-25T10:14:54;94081.63;;;16.11;86.28
57801;BME280;43627;42.728;23.256;2023-04-25T10:17:22;94083.66;;;16.10;80.90
57801;BME280;43627;42.728;23.256;2023-04-25T10:19:50;94086.56;;;16.18;81.21
57801;BME280;43627;42.728;23.256;2023-04-25T10:22:23;94084.09;;;16.52;79.70
57801;BME280;43627;42.728;23.256;2023-04-25T10:24:52;94097.91;;;16.65;78.10
57801;BME280;43627;42.728;23.256;2023-04-25T10:27:19;94079.97;;;15.64;68.50
57801;BME280;43627;42.728;23.256;2023-04-25T10:30:00;94079.56;;;14.18;74.32
57801;BME280;43627;42.728;23.256;2023-04-25T10:32:27;94097.19;;;13.76;84.81
57801;BME280;43627;42.728;23.256;2023-04-25T10:34:56;94085.03;;;13.54;97.17
57801;BME280;43627;42.728;23.256;2023-04-25T10:37:24;94092.31;;;13.24;100.00
57801;BME280;43627;42.728;23.256;2023-04-25T10:39:50;94081.84;;;13.33;100.00
57801;BME280;43627;42.728;23.256;2023-04-25T10:42:19;94076.84;;;13.43;100.00
57801;BME280;43627;42.728;23.256;2023-04-25T10:45:01;94059.91;;;13.44;100.00
57801;BME280;43627;42.728;23.256;2023-04-25T10:47:36;94067.81;;;13.76;100.00
57801;BME280;43627;42.728;23.256;2023-04-25T10:50:08;94068.72;;;14.42;100.00
57801;BME280;43627;42.728;23.256;2023-04-25T10:52:35;94069.91;;;14.88;94.17
57801;BME280;43627;42.728;23.256;2023-04-25T10:55:05;94070.97;;;15.09;77.90
57801;BME280;43627;42.728;23.256;2023-04-25T11:00:06;94066.03;;;15.02;65.34
57801;BME280;43627;42.728;23.256;2023-04-25T11:02:51;94069.56;;;15.27;71.09
57801;BME280;43627;42.728;23.256;2023-04-25T11:07:56;94067.75;;;15.35;72.31
57801;BME280;43627;42.728;23.256;2023-04-25T11:10:34;94056.34;;;15.75;65.18
57801;BME280;43627;42.728;23.256;2023-04-25T11:13:03;94053.75;;;15.82;59.38
57801;BME280;43627;42.728;23.256;2023-04-25T11:15:30;94050.75;;;15.61;59.05
57801;BME280;43627;42.728;23.256;2023-04-25T11:17:57;94061.31;;;15.76;65.61
57801;BME280;43627;42.728;23.256;2023-04-25T11:20:25;94031.50;;;15.37;75.93
57801;BME280;43627;42.728;23.256;2023-04-25T11:22:57;94044.19;;;15.15;75.33
57801;BME280;43627;42.728;23.256;2023-04-25T11:25:25;94055.44;;;15.18;71.07
57801;BME280;43627;42.728;23.256;2023-04-25T11:27:56;94039.91;;;15.20;71.71
57801;BME280;43627;42.728;23.256;2023-04-25T11:30:25;94035.91;;;15.21;74.11
57801;BME280;43627;42.728;23.256;2023-04-25T11:32:52;94038.31;;;15.30;77.67
57801;BME280;43627;42.728;23.256;2023-04-25T11:35:19;94038.09;;;15.28;80.29
57801;BME280;43627;42.728;23.256;2023-04-25T11:37:47;94047.00;;;15.10;81.63
57801;BME280;43627;42.728;23.256;2023-04-25T11:40:14;94022.63;;;15.01;79.52
57801;BME280;43627;42.728;23.256;2023-04-25T11:42:46;94050.34;;;14.67;75.11
57801;BME280;43627;42.728;23.256;2023-04-25T11:45:13;94043.66;;;14.93;78.43
57801;BME280;43627;42.728;23.256;2023-04-25T11:47:41;94018.22;;;14.62;71.69
57801;BME280;43627;42.728;23.256;2023-04-25T11:50:09;94028.91;;;14.66;68.16
57801;BME280;43627;42.728;23.256;2023-04-25T11:52:41;94047.91;;;14.58;70.69
57801;BME280;43627;42.728;23.256;2023-04-25T11:55:13;94034.13;;;14.99;71.03
57801;BME280;43627;42.728;23.256;2023-04-25T11:57:42;94033.13;;;14.97;66.50
57801;BME280;43627;42.728;23.256;2023-04-25T12:00:15;94018.50;;;15.13;64.24
57801;BME280;43627;42.728;23.256;2023-04-25T12:02:46;94011.41;;;15.23;59.01
57801;BME280;43627;42.728;23.256;2023-04-25T12:05:15;94022.41;;;15.48;61.57
57801;BME280;43627;42.728;23.256;2023-04-25T12:08:08;94015.66;;;15.49;56.67
57801;BME280;43627;42.728;23.256;2023-04-25T12:10:38;94029.69;;;15.45;59.26
57801;BME280;43627;42.728;23.256;2023-04-25T12:13:20;94020.00;;;15.63;60.34
57801;BME280;43627;42.728;23.256;2023-04-25T12:15:47;94034.13;;;15.73;62.45
57801;BME280;43627;42.728;23.256;2023-04-25T12:18:19;94058.38;;;15.44;61.88
57801;BME280;43627;42.728;23.256;2023-04-25T12:20:46;94082.31;;;14.65;77.85
57801;BME280;43627;42.728;23.256;2023-04-25T12:23:12;94088.72;;;13.73;95.29
57801;BME280;43627;42.728;23.256;2023-04-25T12:25:41;94046.06;;;13.03;100.00
57801;BME280;43627;42.728;23.256;2023-04-25T12:33:22;94068.13;;;12.10;100.00
57801;BME280;43627;42.728;23.256;2023-04-25T12:35:49;94064.72;;;12.32;100.00
57801;BME280;43627;42.728;23.256;2023-04-25T12:38:25;94069.69;;;12.67;100.00
57801;BME280;43627;42.728;23.256;2023-04-25T12:40:53;94072.69;;;12.75;100.00
57801;BME280;43627;42.728;23.256;2023-04-25T12:43:20;94076.66;;;12.96;100.00
57801;BME280;43627;42.728;23.256;2023-04-25T12:45:53;94084.13;;;13.24;100.00
57801;BME280;43627;42.728;23.256;2023-04-25T12:48:20;94075.13;;;13.40;100.00
57801;BME280;43627;42.728;23.256;2023-04-25T12:50:48;94085.34;;;13.34;100.00
57801;BME280;43627;42.728;23.256;2023-04-25T12:53:20;94090.03;;;13.56;100.00
57801;BME280;43627;42.728;23.256;2023-04-25T12:55:47;94086.25;;;13.76;100.00
57801;BME280;43627;42.728;23.256;2023-04-25T12:58:15;94092.69;;;13.84;100.00
57801;BME280;43627;42.728;23.256;2023-04-25T13:00:43;94088.66;;;13.90;100.00
57801;BME280;43627;42.728;23.256;2023-04-25T13:03:10;94077.00;;;13.84;100.00
57801;BME280;43627;42.728;23.256;2023-04-25T13:05:38;94087.50;;;13.75;100.00